createdAt,value
2023-02-15T00:01:19.780Z,434
2023-02-15T00:02:19.600Z,443
2023-02-15T00:03:19.635Z,441
2023-02-15T00:04:19.898Z,434
2023-02-15T00:05:20.215Z,436
2023-02-15T00:06:19.573Z,441
2023-02-15T00:07:19.630Z,440
2023-02-15T00:08:19.500Z,452
2023-02-15T00:09:19.299Z,444
2023-02-15T00:10:19.365Z,443
2023-02-15T00:11:19.330Z,435
2023-02-15T00:12:19.166Z,442
2023-02-15T00:13:18.992Z,448
2023-02-15T00:14:19.773Z,438
2023-02-15T00:15:20.034Z,431
2023-02-15T00:17:19.213Z,430
2023-02-15T00:18:20.215Z,433
2023-02-15T00:19:19.776Z,426
2023-02-15T00:20:19.808Z,427
2023-02-15T00:21:19.697Z,429
2023-02-15T00:23:19.693Z,434
2023-02-15T00:24:19.574Z,422
2023-02-15T00:25:19.553Z,428
2023-02-15T00:26:20.142Z,425
2023-02-15T00:27:19.881Z,419
2023-02-15T00:28:19.774Z,420
2023-02-15T00:29:20.176Z,418
2023-02-15T00:30:20.560Z,409
2023-02-15T00:32:20.060Z,413
2023-02-15T00:33:19.972Z,423
2023-02-15T00:35:19.840Z,432
2023-02-15T00:36:19.496Z,424
2023-02-15T00:37:19.454Z,419
2023-02-15T00:40:19.209Z,423
2023-02-15T00:41:19.800Z,418
2023-02-15T00:42:19.126Z,420
2023-02-15T00:43:19.219Z,434
2023-02-15T00:44:19.333Z,435
2023-02-15T00:45:19.853Z,425
2023-02-15T00:47:19.048Z,422
2023-02-15T00:48:19.039Z,429
2023-02-15T00:49:19.342Z,438
2023-02-15T00:50:19.576Z,441
2023-02-15T00:51:18.820Z,434
2023-02-15T00:53:19.436Z,442
2023-02-15T00:54:19.738Z,445
2023-02-15T00:55:19.268Z,440
2023-02-15T00:56:19.428Z,430
2023-02-15T00:57:18.849Z,421
2023-02-15T00:58:19.065Z,422
2023-02-15T01:00:20.023Z,414
2023-02-15T01:01:21.821Z,409
2023-02-15T01:02:20.116Z,426
2023-02-15T01:04:19.498Z,429
2023-02-15T01:05:19.904Z,423
2023-02-15T01:06:19.564Z,417
2023-02-15T01:07:19.379Z,420
2023-02-15T01:08:18.980Z,424
2023-02-15T01:09:19.862Z,426
2023-02-15T01:10:19.622Z,419
2023-02-15T01:11:19.635Z,423
2023-02-15T01:12:19.534Z,422
2023-02-15T01:13:19.255Z,429
2023-02-15T01:14:19.923Z,431
2023-02-15T01:15:20.012Z,421
2023-02-15T01:16:19.579Z,431
2023-02-15T01:17:19.561Z,435
2023-02-15T01:18:19.309Z,436
2023-02-15T01:19:19.729Z,428
2023-02-15T01:20:19.597Z,426
2023-02-15T01:21:19.560Z,427
2023-02-15T01:23:19.776Z,424
2023-02-15T01:24:19.366Z,425
2023-02-15T01:25:19.288Z,430
2023-02-15T01:26:19.760Z,427
2023-02-15T01:27:19.343Z,434
2023-02-15T01:28:18.671Z,445
2023-02-15T01:29:19.401Z,431
2023-02-15T01:30:19.575Z,415
2023-02-15T01:31:19.819Z,412
2023-02-15T01:32:19.915Z,429
2023-02-15T01:33:19.865Z,431
2023-02-15T01:34:19.473Z,427
2023-02-15T01:35:19.243Z,421
2023-02-15T01:36:19.996Z,429
2023-02-15T01:37:19.813Z,432
2023-02-15T01:38:19.569Z,426
2023-02-15T01:39:19.733Z,440
2023-02-15T01:40:19.602Z,434
2023-02-15T01:41:19.427Z,432
2023-02-15T01:42:19.420Z,433
2023-02-15T01:43:19.673Z,430
2023-02-15T01:44:20.017Z,434
2023-02-15T01:45:20.293Z,442
2023-02-15T01:46:20.231Z,436
2023-02-15T01:47:19.728Z,435
2023-02-15T01:48:19.900Z,436
2023-02-15T01:49:20.593Z,428
2023-02-15T01:50:19.879Z,425
2023-02-15T01:51:19.482Z,431
2023-02-15T01:52:20.017Z,429
2023-02-15T01:53:19.749Z,427
2023-02-15T01:55:19.285Z,416
2023-02-15T01:56:19.501Z,417
2023-02-15T01:57:19.214Z,424
2023-02-15T01:58:19.559Z,427
2023-02-15T01:59:19.334Z,425
2023-02-15T02:00:20.042Z,430
2023-02-15T02:02:19.469Z,416
2023-02-15T02:03:19.736Z,421
2023-02-15T02:04:19.780Z,432
2023-02-15T02:06:19.048Z,423
2023-02-15T02:07:19.833Z,412
2023-02-15T02:08:19.196Z,415
2023-02-15T02:09:19.683Z,419
2023-02-15T02:10:19.478Z,425
2023-02-15T02:12:19.559Z,425
2023-02-15T02:13:19.567Z,428
2023-02-15T02:15:20.017Z,429
2023-02-15T02:16:19.424Z,420
2023-02-15T02:17:19.518Z,419
2023-02-15T02:18:19.434Z,417
2023-02-15T02:19:19.772Z,425
2023-02-15T02:20:19.846Z,424
2023-02-15T02:21:20.162Z,412
2023-02-15T02:22:19.749Z,410
2023-02-15T02:23:19.363Z,415
2023-02-15T02:24:19.712Z,414
2023-02-15T02:25:19.741Z,413
2023-02-15T02:26:19.767Z,425
2023-02-15T02:27:19.576Z,433
2023-02-15T02:28:19.402Z,438
2023-02-15T02:29:19.833Z,433
2023-02-15T02:30:20.335Z,426
2023-02-15T02:31:19.497Z,435
2023-02-15T02:32:19.282Z,423
2023-02-15T02:33:19.608Z,420
2023-02-15T02:35:19.718Z,420
2023-02-15T02:36:19.585Z,427
2023-02-15T02:37:19.618Z,435
2023-02-15T02:38:19.656Z,430
2023-02-15T02:39:19.725Z,425
2023-02-15T02:40:19.577Z,431
2023-02-15T02:42:19.873Z,430
2023-02-15T02:43:19.616Z,428
2023-02-15T02:44:19.191Z,423
2023-02-15T02:45:20.436Z,416
2023-02-15T02:46:19.354Z,428
2023-02-15T02:48:19.527Z,426
2023-02-15T02:49:19.327Z,413
2023-02-15T02:50:19.560Z,425
2023-02-15T02:51:19.387Z,430
2023-02-15T02:52:20.023Z,424
2023-02-15T02:53:19.976Z,437
2023-02-15T02:54:19.493Z,434
2023-02-15T02:55:19.528Z,436
2023-02-15T02:56:19.495Z,422
2023-02-15T02:57:20.206Z,416
2023-02-15T02:58:19.566Z,420
2023-02-15T02:59:19.318Z,426
2023-02-15T03:00:21.031Z,427
2023-02-15T03:01:19.881Z,433
2023-02-15T03:02:19.833Z,432
2023-02-15T03:03:19.534Z,426
2023-02-15T03:04:19.933Z,423
2023-02-15T03:05:19.730Z,418
2023-02-15T03:06:19.809Z,430
2023-02-15T03:07:20.044Z,437
2023-02-15T03:08:19.782Z,444
2023-02-15T03:09:19.795Z,431
2023-02-15T03:11:19.119Z,442
2023-02-15T03:12:19.905Z,440
2023-02-15T03:13:19.528Z,444
2023-02-15T03:15:19.466Z,438
2023-02-15T03:16:19.447Z,429
2023-02-15T03:17:19.550Z,438
2023-02-15T03:18:19.240Z,443
2023-02-15T03:19:19.819Z,441
2023-02-15T03:20:19.517Z,430
2023-02-15T03:21:20.062Z,431
2023-02-15T03:22:19.440Z,427
2023-02-15T03:23:19.356Z,442
2023-02-15T03:24:20.022Z,431
2023-02-15T03:25:19.816Z,434
2023-02-15T03:26:19.783Z,429
2023-02-15T03:27:19.909Z,416
2023-02-15T03:28:20.157Z,419
2023-02-15T03:29:19.582Z,422
2023-02-15T03:30:19.981Z,427
2023-02-15T03:31:20.021Z,428
2023-02-15T03:32:20.450Z,427
2023-02-15T03:33:19.355Z,430
2023-02-15T03:34:20.159Z,420
2023-02-15T03:35:19.836Z,425
2023-02-15T03:36:19.593Z,420
2023-02-15T03:38:19.631Z,428
2023-02-15T03:39:19.942Z,422
2023-02-15T03:40:20.012Z,430
2023-02-15T03:41:19.962Z,439
2023-02-15T03:42:20.283Z,437
2023-02-15T03:43:19.178Z,426
2023-02-15T03:44:19.484Z,430
2023-02-15T03:45:20.302Z,426
2023-02-15T03:46:19.830Z,429
2023-02-15T03:48:19.789Z,438
2023-02-15T03:49:19.548Z,439
2023-02-15T03:50:20.078Z,440
2023-02-15T03:51:20.054Z,436
2023-02-15T03:52:20.000Z,433
2023-02-15T03:53:21.843Z,434
2023-02-15T03:54:20.280Z,425
2023-02-15T03:55:20.456Z,424
2023-02-15T03:56:19.800Z,420
2023-02-15T03:57:20.226Z,422
2023-02-15T03:58:20.011Z,439
2023-02-15T03:59:20.161Z,426
2023-02-15T04:01:20.274Z,431
2023-02-15T04:02:21.041Z,423
2023-02-15T04:03:20.326Z,428
2023-02-15T04:04:20.243Z,436
2023-02-15T04:05:19.437Z,435
2023-02-15T04:06:19.752Z,424
2023-02-15T04:08:19.878Z,423
2023-02-15T04:09:19.870Z,427
2023-02-15T04:10:20.412Z,422
2023-02-15T04:11:20.394Z,418
2023-02-15T04:12:20.115Z,424
2023-02-15T04:13:19.503Z,434
2023-02-15T04:15:20.235Z,427
2023-02-15T04:16:20.046Z,422
2023-02-15T04:17:19.471Z,425
2023-02-15T04:18:19.778Z,419
2023-02-15T04:19:19.974Z,416
2023-02-15T04:20:21.718Z,417
2023-02-15T04:21:21.160Z,419
2023-02-15T04:22:21.091Z,424
2023-02-15T04:23:20.531Z,430
2023-02-15T04:25:20.542Z,433
2023-02-15T04:26:20.730Z,432
2023-02-15T04:27:20.859Z,433
2023-02-15T04:29:19.794Z,425
2023-02-15T04:30:21.149Z,426
2023-02-15T04:31:20.414Z,432
2023-02-15T04:32:20.610Z,443
2023-02-15T04:33:20.352Z,441
2023-02-15T04:34:21.007Z,449
2023-02-15T04:35:20.456Z,453
2023-02-15T04:36:21.007Z,441
2023-02-15T04:38:20.391Z,436
2023-02-15T04:40:20.089Z,430
2023-02-15T04:41:20.107Z,427
2023-02-15T04:42:20.044Z,438
2023-02-15T04:43:19.920Z,435
2023-02-15T04:44:20.732Z,443
2023-02-15T04:45:20.922Z,433
2023-02-15T04:46:19.762Z,430
2023-02-15T04:47:19.317Z,430
2023-02-15T04:48:20.038Z,439
2023-02-15T04:49:19.642Z,434
2023-02-15T04:50:19.379Z,429
2023-02-15T04:52:19.585Z,442
2023-02-15T04:54:19.141Z,429
2023-02-15T04:55:20.194Z,428
2023-02-15T04:57:19.255Z,429
2023-02-15T04:58:19.029Z,433
2023-02-15T04:59:20.156Z,432
2023-02-15T05:00:20.777Z,427
2023-02-15T05:01:19.711Z,439
2023-02-15T05:02:19.043Z,437
2023-02-15T05:03:19.729Z,441
2023-02-15T05:04:19.560Z,438
2023-02-15T05:05:19.954Z,439
2023-02-15T05:06:19.421Z,434
2023-02-15T05:07:19.738Z,426
2023-02-15T05:08:19.696Z,441
2023-02-15T05:09:19.286Z,444
2023-02-15T05:11:19.884Z,439
2023-02-15T05:12:19.520Z,443
2023-02-15T05:13:19.024Z,442
2023-02-15T05:14:19.514Z,447
2023-02-15T05:15:19.916Z,450
2023-02-15T05:16:19.497Z,441
2023-02-15T05:17:19.179Z,446
2023-02-15T05:18:19.249Z,450
2023-02-15T05:20:19.544Z,446
2023-02-15T05:21:19.348Z,445
2023-02-15T05:22:19.522Z,439
2023-02-15T05:23:19.042Z,444
2023-02-15T05:25:19.598Z,448
2023-02-15T05:26:19.538Z,451
2023-02-15T05:27:19.916Z,450
2023-02-15T05:28:19.496Z,447
2023-02-15T05:29:19.255Z,449
2023-02-15T05:30:22.008Z,439
2023-02-15T05:31:20.170Z,438
2023-02-15T05:32:19.880Z,447
2023-02-15T05:33:19.393Z,442
2023-02-15T05:34:19.169Z,439
2023-02-15T05:35:19.768Z,432
2023-02-15T05:36:19.923Z,428
2023-02-15T05:37:19.601Z,435
2023-02-15T05:39:20.188Z,444
2023-02-15T05:40:20.292Z,451
2023-02-15T05:41:19.747Z,448
2023-02-15T05:42:19.902Z,447
2023-02-15T05:43:20.138Z,453
2023-02-15T05:44:19.768Z,448
2023-02-15T05:45:20.072Z,445
2023-02-15T05:46:20.175Z,442
2023-02-15T05:47:19.686Z,445
2023-02-15T05:48:19.732Z,442
2023-02-15T05:49:19.723Z,433
2023-02-15T05:50:19.962Z,439
2023-02-15T05:51:19.274Z,443
2023-02-15T05:52:19.663Z,439
2023-02-15T05:53:19.301Z,449
2023-02-15T05:54:19.555Z,446
2023-02-15T05:55:19.751Z,440
2023-02-15T05:56:20.119Z,447
2023-02-15T05:57:19.528Z,446
2023-02-15T05:59:19.507Z,437
2023-02-15T06:00:20.677Z,433
2023-02-15T06:01:19.399Z,431
2023-02-15T06:02:20.282Z,426
2023-02-15T06:03:19.469Z,432
2023-02-15T06:04:19.143Z,441
2023-02-15T06:05:20.398Z,445
2023-02-15T06:06:19.372Z,437
2023-02-15T06:07:19.940Z,439
2023-02-15T06:08:19.811Z,450
2023-02-15T06:09:19.662Z,444
2023-02-15T06:10:19.262Z,442
2023-02-15T06:11:19.431Z,450
2023-02-15T06:12:19.484Z,448
2023-02-15T06:15:19.929Z,440
2023-02-15T06:16:20.187Z,445
2023-02-15T06:17:19.885Z,458
2023-02-15T06:18:19.678Z,457
2023-02-15T06:19:19.619Z,452
2023-02-15T06:22:19.941Z,456
2023-02-15T06:23:19.987Z,459
2023-02-15T06:24:19.806Z,467
2023-02-15T06:25:19.721Z,476
2023-02-15T06:26:19.829Z,483
2023-02-15T06:27:20.093Z,473
2023-02-15T06:28:20.223Z,472
2023-02-15T06:29:19.346Z,482
2023-02-15T06:32:19.693Z,482
2023-02-15T06:33:19.472Z,481
2023-02-15T06:34:20.258Z,471
2023-02-15T06:36:19.277Z,474
2023-02-15T06:38:19.712Z,464
2023-02-15T06:39:19.258Z,464
2023-02-15T06:40:19.739Z,462
2023-02-15T06:41:19.596Z,464
2023-02-15T06:42:19.411Z,473
2023-02-15T06:43:19.000Z,476
2023-02-15T06:44:19.623Z,471
2023-02-15T06:45:19.451Z,466
2023-02-15T06:46:19.424Z,471
2023-02-15T06:47:20.333Z,467
2023-02-15T06:48:19.559Z,468
2023-02-15T06:49:19.658Z,459
2023-02-15T06:50:19.806Z,464
2023-02-15T06:51:24.481Z,462
2023-02-15T06:52:19.594Z,465
2023-02-15T06:53:19.229Z,452
2023-02-15T06:54:19.683Z,451
2023-02-15T06:55:19.618Z,470
2023-02-15T06:56:19.348Z,469
2023-02-15T06:57:19.717Z,460
2023-02-15T06:58:19.453Z,473
2023-02-15T06:59:19.859Z,474
2023-02-15T07:00:21.079Z,469
2023-02-15T07:01:20.076Z,461
2023-02-15T07:02:20.220Z,475
2023-02-15T07:03:19.893Z,476
2023-02-15T07:04:20.560Z,466
2023-02-15T07:06:20.145Z,472
2023-02-15T07:07:19.913Z,462
2023-02-15T07:08:20.499Z,454
2023-02-15T07:09:20.349Z,456
2023-02-15T07:10:20.440Z,459
2023-02-15T07:11:19.873Z,458
2023-02-15T07:12:19.906Z,461
2023-02-15T07:14:19.982Z,464
2023-02-15T07:15:20.489Z,467
2023-02-15T07:16:20.366Z,463
2023-02-15T07:18:19.884Z,451
2023-02-15T07:19:20.127Z,447
2023-02-15T07:20:21.077Z,459
2023-02-15T07:21:19.930Z,452
2023-02-15T07:22:19.673Z,449
2023-02-15T07:23:19.936Z,451
2023-02-15T07:24:20.035Z,445
2023-02-15T07:26:19.716Z,455
2023-02-15T07:27:19.727Z,459
2023-02-15T07:28:19.683Z,446
2023-02-15T07:29:19.481Z,449
2023-02-15T07:30:19.881Z,459
2023-02-15T07:31:19.775Z,457
2023-02-15T07:32:20.019Z,453
2023-02-15T07:33:20.063Z,445
2023-02-15T07:34:20.016Z,450
2023-02-15T07:35:20.457Z,453
2023-02-15T07:37:20.214Z,451
2023-02-15T07:38:19.507Z,458
2023-02-15T07:39:20.029Z,456
2023-02-15T07:40:20.673Z,447
2023-02-15T07:41:20.413Z,459
2023-02-15T07:42:20.820Z,454
2023-02-15T07:43:20.531Z,444
2023-02-15T07:44:19.795Z,442
2023-02-15T07:45:20.564Z,447
2023-02-15T07:46:19.960Z,443
2023-02-15T07:47:20.325Z,431
2023-02-15T07:48:22.280Z,433
2023-02-15T07:50:20.622Z,443
2023-02-15T07:51:20.588Z,442
2023-02-15T07:52:19.948Z,435
2023-02-15T07:53:19.644Z,438
2023-02-15T07:54:19.757Z,439
2023-02-15T07:55:19.860Z,433
2023-02-15T07:56:20.140Z,424
2023-02-15T07:57:20.310Z,433
2023-02-15T07:58:19.737Z,438
2023-02-15T07:59:20.069Z,440
2023-02-15T08:00:21.346Z,447
2023-02-15T08:01:19.766Z,441
2023-02-15T08:02:20.280Z,444
2023-02-15T08:04:20.356Z,438
2023-02-15T08:06:20.133Z,440
2023-02-15T08:07:20.049Z,442
2023-02-15T08:08:19.959Z,434
2023-02-15T08:11:20.151Z,442
2023-02-15T08:12:18.680Z,439
2023-02-15T08:13:19.657Z,428
2023-02-15T08:14:19.622Z,438
2023-02-15T08:15:20.435Z,431
2023-02-15T08:16:19.908Z,424
2023-02-15T08:17:19.831Z,430
2023-02-15T08:18:20.058Z,422
2023-02-15T08:19:20.333Z,426
2023-02-15T08:21:20.350Z,422
2023-02-15T08:22:20.534Z,423
2023-02-15T08:23:19.989Z,428
2023-02-15T08:24:20.540Z,430
2023-02-15T08:25:19.835Z,422
2023-02-15T08:26:20.155Z,423
2023-02-15T08:27:20.354Z,421
2023-02-15T08:28:19.646Z,434
2023-02-15T08:29:19.566Z,428
2023-02-15T08:30:20.150Z,423
2023-02-15T08:31:19.782Z,420
2023-02-15T08:32:20.065Z,413
2023-02-15T08:33:20.334Z,411
2023-02-15T08:34:19.949Z,404
2023-02-15T08:35:19.857Z,407
2023-02-15T08:36:20.057Z,406
2023-02-15T08:37:20.112Z,409
2023-02-15T08:38:20.499Z,418
2023-02-15T08:39:19.979Z,413
2023-02-15T08:40:20.674Z,410
2023-02-15T08:41:20.069Z,404
2023-02-15T08:42:20.403Z,402
2023-02-15T08:43:19.805Z,409
2023-02-15T08:44:19.937Z,403
2023-02-15T08:45:20.396Z,399
2023-02-15T08:47:20.591Z,397
2023-02-15T08:48:19.844Z,399
2023-02-15T08:49:20.311Z,397
2023-02-15T08:50:20.091Z,413
2023-02-15T08:51:20.153Z,417
2023-02-15T08:52:22.314Z,425
2023-02-15T08:53:19.766Z,422
2023-02-15T08:54:20.101Z,406
2023-02-15T08:55:20.293Z,407
2023-02-15T08:56:20.073Z,411
2023-02-15T08:57:20.274Z,413
2023-02-15T08:58:19.821Z,403
2023-02-15T08:59:20.086Z,395
2023-02-15T09:00:21.669Z,401
2023-02-15T09:01:20.730Z,408
2023-02-15T09:02:21.185Z,402
2023-02-15T09:03:21.181Z,389
2023-02-15T09:04:21.444Z,388
2023-02-15T09:05:21.235Z,389
2023-02-15T09:06:21.444Z,401
2023-02-15T09:07:21.209Z,393
2023-02-15T09:08:20.856Z,397
2023-02-15T09:09:21.468Z,407
2023-02-15T09:10:20.929Z,401
2023-02-15T09:11:21.264Z,398
2023-02-15T09:12:20.841Z,414
2023-02-15T09:13:20.302Z,424
2023-02-15T09:14:25.549Z,423
2023-02-15T09:15:20.260Z,409
2023-02-15T09:16:19.550Z,404
2023-02-15T09:18:25.325Z,408
2023-02-15T09:19:19.729Z,414
2023-02-15T09:20:20.291Z,408
2023-02-15T09:21:19.517Z,398
2023-02-15T09:22:20.405Z,405
2023-02-15T09:23:26.910Z,407
2023-02-15T09:24:20.220Z,405
2023-02-15T09:25:20.331Z,406
2023-02-15T09:26:19.858Z,403
2023-02-15T09:27:20.100Z,406
2023-02-15T09:28:20.271Z,399
2023-02-15T09:29:19.642Z,402
2023-02-15T09:30:20.506Z,401
2023-02-15T09:31:19.694Z,397
2023-02-15T09:32:20.378Z,408
2023-02-15T09:33:19.727Z,402
2023-02-15T09:34:20.586Z,395
2023-02-15T09:36:19.870Z,401
2023-02-15T09:37:20.155Z,404
2023-02-15T09:38:34.099Z,401
2023-02-15T09:39:20.183Z,408
2023-02-15T09:40:19.667Z,407
2023-02-15T09:41:19.919Z,403
2023-02-15T09:42:19.446Z,401
2023-02-15T09:43:19.884Z,384
2023-02-15T09:45:19.938Z,391
2023-02-15T09:46:20.073Z,384
2023-02-15T09:47:19.796Z,392
2023-02-15T09:48:20.005Z,398
2023-02-15T09:49:20.610Z,394
2023-02-15T09:50:39.429Z,388
2023-02-15T09:51:19.781Z,394
2023-02-15T09:52:20.610Z,407
2023-02-15T09:53:20.124Z,400
2023-02-15T09:54:19.929Z,392
2023-02-15T09:55:19.679Z,398
2023-02-15T09:56:21.134Z,393
2023-02-15T09:57:19.816Z,390
2023-02-15T09:58:20.269Z,393
2023-02-15T10:00:20.870Z,397
2023-02-15T10:01:19.839Z,394
2023-02-15T10:03:19.967Z,404
2023-02-15T10:04:19.800Z,408
2023-02-15T10:05:20.546Z,392
2023-02-15T10:06:19.588Z,387
2023-02-15T10:07:20.175Z,402
2023-02-15T10:09:20.145Z,371
2023-02-15T10:11:20.166Z,397
2023-02-15T10:12:19.685Z,390
2023-02-15T10:13:19.990Z,389
2023-02-15T10:14:19.944Z,385
2023-02-15T10:15:20.972Z,393
2023-02-15T10:16:19.393Z,396
2023-02-15T10:17:20.421Z,395
2023-02-15T10:18:19.402Z,396
2023-02-15T10:19:19.869Z,400
2023-02-15T10:20:20.695Z,392
2023-02-15T10:21:19.840Z,388
2023-02-15T10:22:20.172Z,391
2023-02-15T10:23:19.608Z,393
2023-02-15T10:24:20.433Z,394
2023-02-15T10:25:19.960Z,395
2023-02-15T10:26:19.499Z,392
2023-02-15T10:27:19.933Z,398
2023-02-15T10:28:19.761Z,396
2023-02-15T10:29:20.437Z,398
2023-02-15T10:30:20.722Z,394
2023-02-15T10:31:20.872Z,397
2023-02-15T10:32:20.787Z,396
2023-02-15T10:33:20.471Z,403
2023-02-15T10:34:20.410Z,398
2023-02-15T10:35:20.907Z,397
2023-02-15T10:36:20.606Z,398
2023-02-15T10:37:20.765Z,395
2023-02-15T10:38:20.609Z,397
2023-02-15T10:39:20.817Z,392
2023-02-15T10:40:21.248Z,383
2023-02-15T10:41:20.783Z,393
2023-02-15T10:42:20.707Z,389
2023-02-15T10:43:21.277Z,394
2023-02-15T10:44:21.031Z,400
2023-02-15T10:45:21.042Z,394
2023-02-15T10:46:21.059Z,393
2023-02-15T10:47:21.390Z,390
2023-02-15T10:48:21.670Z,401
2023-02-15T10:49:20.827Z,399
2023-02-15T10:50:20.401Z,395
2023-02-15T10:51:20.262Z,400
2023-02-15T10:52:20.603Z,398
2023-02-15T10:53:20.273Z,393
2023-02-15T10:54:20.989Z,390
2023-02-15T10:55:20.578Z,392
2023-02-15T10:56:21.011Z,395
2023-02-15T10:57:20.650Z,394
2023-02-15T10:58:19.877Z,395
2023-02-15T10:59:20.461Z,390
2023-02-15T11:00:21.108Z,384
2023-02-15T11:01:20.361Z,383
2023-02-15T11:02:20.604Z,391
2023-02-15T11:03:20.237Z,392
2023-02-15T11:04:20.536Z,378
2023-02-15T11:05:20.817Z,376
2023-02-15T11:06:20.375Z,386
2023-02-15T11:08:20.468Z,388
2023-02-15T11:09:19.934Z,392
2023-02-15T11:10:20.370Z,383
2023-02-15T11:11:20.095Z,381
2023-02-15T11:12:20.598Z,391
2023-02-15T11:14:20.104Z,393
2023-02-15T11:15:20.030Z,384
2023-02-15T11:16:20.213Z,391
2023-02-15T11:17:20.085Z,389
2023-02-15T11:18:19.915Z,391
2023-02-15T11:19:20.425Z,383
2023-02-15T11:20:20.320Z,387
2023-02-15T11:21:20.155Z,393
2023-02-15T11:22:19.750Z,393
2023-02-15T11:23:19.921Z,395
2023-02-15T11:24:20.492Z,397
2023-02-15T11:25:20.364Z,395
2023-02-15T11:26:20.545Z,390
2023-02-15T11:27:20.854Z,389
2023-02-15T11:28:19.906Z,391
2023-02-15T11:29:19.746Z,388
2023-02-15T11:30:21.514Z,382
2023-02-15T11:31:19.763Z,386
2023-02-15T11:33:19.643Z,385
2023-02-15T11:34:20.381Z,391
2023-02-15T11:36:20.321Z,387
2023-02-15T11:37:20.130Z,386
2023-02-15T11:38:19.927Z,377
2023-02-15T11:39:20.561Z,376
2023-02-15T11:40:20.424Z,381
2023-02-15T11:41:20.028Z,378
2023-02-15T11:42:19.351Z,384
2023-02-15T11:43:20.533Z,381
2023-02-15T11:45:20.545Z,374
2023-02-15T11:46:20.152Z,380
2023-02-15T11:47:20.809Z,378
2023-02-15T11:49:24.901Z,380
2023-02-15T11:50:20.706Z,388
2023-02-15T11:51:25.650Z,387
2023-02-15T11:52:20.807Z,381
2023-02-15T11:53:28.035Z,375
2023-02-15T11:54:20.401Z,377
2023-02-15T11:55:21.526Z,373
2023-02-15T11:57:21.814Z,374
2023-02-15T11:58:20.324Z,377
2023-02-15T11:59:20.657Z,381
2023-02-15T12:00:21.095Z,382
2023-02-15T12:01:35.224Z,388
2023-02-15T12:02:21.424Z,386
2023-02-15T12:03:23.633Z,402
2023-02-15T12:04:20.325Z,398
2023-02-15T12:05:20.972Z,380
2023-02-15T12:06:20.815Z,382
2023-02-15T12:07:20.129Z,383
2023-02-15T12:09:23.153Z,375
2023-02-15T12:10:21.378Z,380
2023-02-15T12:11:21.081Z,376
2023-02-15T12:12:20.409Z,382
2023-02-15T12:13:20.359Z,378
2023-02-15T12:14:20.462Z,381
2023-02-15T12:15:20.852Z,375
2023-02-15T12:17:20.591Z,384
2023-02-15T12:18:20.113Z,391
2023-02-15T12:19:39.373Z,385
2023-02-15T12:20:21.167Z,384
2023-02-15T12:21:20.651Z,383
2023-02-15T12:22:20.695Z,385
2023-02-15T12:23:20.605Z,380
2023-02-15T12:24:20.745Z,372
2023-02-15T12:25:20.927Z,369
2023-02-15T12:26:20.108Z,361
2023-02-15T12:27:42.247Z,377
2023-02-15T12:28:20.195Z,379
2023-02-15T12:29:20.525Z,385
2023-02-15T12:30:20.442Z,383
2023-02-15T12:31:21.028Z,380
2023-02-15T12:32:21.092Z,373
2023-02-15T12:33:20.290Z,376
2023-02-15T12:34:20.682Z,385
2023-02-15T12:35:21.702Z,376
2023-02-15T12:36:20.157Z,375
2023-02-15T12:37:20.115Z,379
2023-02-15T12:38:20.461Z,386
2023-02-15T12:39:20.913Z,392
2023-02-15T12:40:20.803Z,393
2023-02-15T12:41:20.553Z,386
2023-02-15T12:42:20.296Z,380
2023-02-15T12:43:20.615Z,383
2023-02-15T12:44:20.790Z,382
2023-02-15T12:45:21.028Z,388
2023-02-15T12:46:20.248Z,387
2023-02-15T12:47:20.658Z,385
2023-02-15T12:48:20.906Z,387
2023-02-15T12:50:20.343Z,371
2023-02-15T12:51:20.215Z,381
2023-02-15T12:52:19.987Z,379
2023-02-15T12:53:20.724Z,373
2023-02-15T12:54:23.584Z,374
2023-02-15T12:55:20.843Z,370
2023-02-15T12:56:23.991Z,375
2023-02-15T12:57:20.491Z,385
2023-02-15T12:58:20.757Z,382
2023-02-15T12:59:23.249Z,372
2023-02-15T13:00:21.940Z,365
2023-02-15T13:01:20.974Z,383
2023-02-15T13:02:20.886Z,387
2023-02-15T13:03:20.391Z,390
2023-02-15T13:04:21.146Z,388
2023-02-15T13:05:20.736Z,381
2023-02-15T13:06:20.144Z,372
2023-02-15T13:08:21.083Z,373
2023-02-15T13:09:20.683Z,372
2023-02-15T13:10:20.390Z,373
2023-02-15T13:11:21.713Z,379
2023-02-15T13:12:20.565Z,374
2023-02-15T13:13:20.700Z,382
2023-02-15T13:14:20.758Z,376
2023-02-15T13:15:21.209Z,370
2023-02-15T13:16:21.064Z,365
2023-02-15T13:17:20.475Z,368
2023-02-15T13:19:21.392Z,372
2023-02-15T13:20:20.986Z,380
2023-02-15T13:21:20.816Z,383
2023-02-15T13:22:21.355Z,378
2023-02-15T13:24:21.083Z,381
2023-02-15T13:25:20.891Z,373
2023-02-15T13:26:20.443Z,371
2023-02-15T13:27:21.413Z,386
2023-02-15T13:28:20.315Z,390
2023-02-15T13:29:21.183Z,377
2023-02-15T13:30:21.509Z,381
2023-02-15T13:31:21.164Z,382
2023-02-15T13:32:21.759Z,380
2023-02-15T13:33:21.553Z,376
2023-02-15T13:34:21.043Z,386
2023-02-15T13:35:21.075Z,385
2023-02-15T13:36:21.952Z,393
2023-02-15T13:37:20.972Z,401
2023-02-15T13:38:20.891Z,391
2023-02-15T13:39:21.490Z,379
2023-02-15T13:40:21.105Z,376
2023-02-15T13:42:21.510Z,378
2023-02-15T13:43:21.402Z,373
2023-02-15T13:44:21.442Z,371
2023-02-15T13:45:21.981Z,380
2023-02-15T13:47:21.225Z,384
2023-02-15T13:48:22.060Z,376
2023-02-15T13:49:20.487Z,383
2023-02-15T13:50:20.963Z,384
2023-02-15T13:51:20.722Z,381
2023-02-15T13:52:20.955Z,389
2023-02-15T13:53:19.947Z,396
2023-02-15T13:54:20.050Z,402
2023-02-15T13:55:21.703Z,389
2023-02-15T13:56:19.686Z,380
2023-02-15T13:57:21.009Z,382
2023-02-15T13:58:19.978Z,380
2023-02-15T13:59:20.830Z,375
2023-02-15T14:00:21.665Z,377
2023-02-15T14:01:20.798Z,373
2023-02-15T14:02:20.040Z,372
2023-02-15T14:03:20.169Z,377
2023-02-15T14:04:21.102Z,381
2023-02-15T14:06:20.537Z,377
2023-02-15T14:07:20.752Z,383
2023-02-15T14:08:21.751Z,378
2023-02-15T14:09:21.372Z,375
2023-02-15T14:10:21.242Z,371
2023-02-15T14:11:20.717Z,366
2023-02-15T14:12:20.688Z,383
2023-02-15T14:13:20.107Z,382
2023-02-15T14:14:19.969Z,378
2023-02-15T14:15:20.212Z,375
2023-02-15T14:16:20.084Z,371
2023-02-15T14:17:19.960Z,362
2023-02-15T14:18:20.082Z,376
2023-02-15T14:19:19.642Z,374
2023-02-15T14:20:28.025Z,376
2023-02-15T14:21:20.811Z,381
2023-02-15T14:22:20.102Z,382
2023-02-15T14:23:20.911Z,380
2023-02-15T14:24:29.266Z,374
2023-02-15T14:25:21.131Z,381
2023-02-15T14:26:20.958Z,374
2023-02-15T14:27:20.998Z,364
2023-02-15T14:28:34.864Z,368
2023-02-15T14:29:20.856Z,373
2023-02-15T14:30:20.819Z,374
2023-02-15T14:31:21.804Z,376
2023-02-15T14:32:35.436Z,373
2023-02-15T14:33:21.121Z,378
2023-02-15T14:34:21.817Z,375
2023-02-15T14:35:21.879Z,383
2023-02-15T14:36:20.641Z,374
2023-02-15T14:37:20.350Z,369
2023-02-15T14:38:20.562Z,366
2023-02-15T14:39:21.015Z,369
2023-02-15T14:40:20.924Z,382
2023-02-15T14:41:20.178Z,390
2023-02-15T14:42:19.883Z,389
2023-02-15T14:43:20.176Z,390
2023-02-15T14:44:38.940Z,377
2023-02-15T14:45:20.892Z,378
2023-02-15T14:47:21.052Z,382
2023-02-15T14:48:20.261Z,387
2023-02-15T14:49:20.133Z,393
2023-02-15T14:50:20.231Z,385
2023-02-15T14:51:20.819Z,387
2023-02-15T14:52:42.244Z,365
2023-02-15T14:53:20.298Z,369
2023-02-15T14:54:20.406Z,377
2023-02-15T14:55:21.124Z,374
2023-02-15T14:56:20.490Z,375
2023-02-15T14:58:20.284Z,373
2023-02-15T14:59:20.043Z,379
2023-02-15T15:00:21.105Z,387
2023-02-15T15:01:20.382Z,393
2023-02-15T15:02:20.328Z,384
2023-02-15T15:03:20.111Z,372
2023-02-15T15:05:20.535Z,379
2023-02-15T15:06:21.118Z,380
2023-02-15T15:07:20.368Z,386
2023-02-15T15:08:20.483Z,376
2023-02-15T15:09:19.605Z,374
2023-02-15T15:10:20.798Z,379
2023-02-15T15:11:20.396Z,378